Time;durP1;ratioP1;P1;durP2;ratioP2;P2;SDS_P1;SDS_P2;PMS_P1;PMS_P2;Temp;Humidity;BMP_temperature;BMP_pressure;BME280_temperature;BME280_humidity;BME280_pressure;Samples;Min_cycle;Max_cycle;Signal;HPM_P1;HPM_P2
2021/08/16 00:00:35;;;;;;;9.20;8.40;;;19.60;13.70;;;;;;5027873;28;20560;-60
2021/08/16 00:03:00;;;;;;;9.63;8.83;;;19.60;16.40;;;;;;5024614;28;20179;-61
2021/08/16 00:05:26;;;;;;;9.87;8.93;;;19.60;16.00;;;;;;5028825;28;20190;-61
2021/08/16 00:07:51;;;;;;;10.13;9.20;;;19.50;18.40;;;;;;5027521;28;20191;-61
2021/08/16 00:10:17;;;;;;;8.80;7.87;;;19.50;18.50;;;;;;5027918;28;20198;-61
2021/08/16 00:12:43;;;;;;;9.33;8.63;;;19.40;21.40;;;;;;5027822;28;20187;-60
2021/08/16 00:15:09;;;;;;;9.40;8.60;;;19.40;26.00;;;;;;5027642;28;20936;-60
2021/08/16 00:17:35;;;;;;;9.57;8.77;;;19.40;27.30;;;;;;5028634;28;20198;-60
2021/08/16 00:20:00;;;;;;;9.57;8.77;;;19.40;24.80;;;;;;5029908;28;20433;-61
2021/08/16 00:22:26;;;;;;;9.23;8.43;;;19.30;21.70;;;;;;5032308;28;20653;-61
2021/08/16 00:24:51;;;;;;;9.87;8.97;;;19.30;25.30;;;;;;5030841;28;20293;-61
2021/08/16 00:27:17;;;;;;;9.53;8.63;;;19.20;30.90;;;;;;5032343;28;20193;-61
2021/08/16 00:29:43;;;;;;;9.70;8.77;;;19.20;34.70;;;;;;5031218;28;20197;-60
2021/08/16 00:32:09;;;;;;;10.20;9.30;;;19.10;35.70;;;;;;5031462;28;20448;-61
2021/08/16 00:34:34;;;;;;;10.93;10.03;;;19.10;38.10;;;;;;5031728;28;20431;-61
2021/08/16 00:37:00;;;;;;;10.17;9.37;;;19.00;39.00;;;;;;5028990;28;20208;-60
2021/08/16 00:39:25;;;;;;;11.37;10.30;;;18.90;42.70;;;;;;5031710;28;20664;-60
2021/08/16 00:41:51;;;;;;;10.70;9.70;;;18.90;57.00;;;;;;5030266;28;20643;-60
2021/08/16 00:44:17;;;;;;;10.13;9.23;;;18.90;64.50;;;;;;5031347;28;20191;-60
2021/08/16 00:46:43;;;;;;;10.30;9.40;;;18.80;68.20;;;;;;5031415;28;20661;-60
2021/08/16 00:49:08;;;;;;;11.20;10.30;;;18.80;63.40;;;;;;5028462;28;20190;-60
2021/08/16 00:51:36;;;;;;;9.67;8.87;;;18.70;65.40;;;;;;5030178;28;20179;-60
2021/08/16 00:54:07;;;;;;;9.40;8.60;;;18.70;65.20;;;;;;5030097;28;20277;-61
2021/08/16 00:56:33;;;;;;;10.13;9.30;;;18.60;67.40;;;;;;5019548;28;20453;-61
2021/08/16 00:59:00;;;;;;;10.10;9.30;;;18.60;71.20;;;;;;5045703;28;20549;-61
2021/08/16 01:01:26;;;;;;;11.10;10.10;;;18.60;72.60;;;;;;5043047;28;20989;-61
2021/08/16 01:03:52;;;;;;;10.20;9.40;;;18.50;73.70;;;;;;5030851;28;20491;-61
2021/08/16 01:06:18;;;;;;;10.60;9.73;;;18.50;74.00;;;;;;5028732;28;20441;-62
2021/08/16 01:08:48;;;;;;;10.83;9.83;;;18.40;77.40;;;;;;5033521;28;20204;-61
2021/08/16 01:11:19;;;;;;;11.47;10.47;;;18.40;90.50;;;;;;5033558;28;20447;-63
2021/08/16 01:13:46;;;;;;;10.77;9.87;;;18.40;99.90;;;;;;5026356;28;20974;-61
2021/08/16 01:16:13;;;;;;;10.73;9.83;;;18.30;99.90;;;;;;5030433;28;20441;-60
2021/08/16 01:18:39;;;;;;;11.30;10.30;;;18.30;99.90;;;;;;5030670;28;20474;-61
2021/08/16 01:21:10;;;;;;;11.03;10.03;;;18.40;99.90;;;;;;5031073;28;20442;-63
2021/08/16 01:23:36;;;;;;;11.63;10.53;;;18.40;99.90;;;;;;5031451;28;20186;-61
2021/08/16 01:26:03;;;;;;;10.97;10.07;;;18.40;99.90;;;;;;5030137;28;20435;-68
2021/08/16 01:28:28;;;;;;;10.93;10.07;;;18.30;99.90;;;;;;5030293;28;20451;-61
2021/08/16 01:30:57;;;;;;;11.67;10.60;;;18.30;99.90;;;;;;5029316;28;20937;-61
2021/08/16 01:33:24;;;;;;;11.97;10.77;;;18.20;99.90;;;;;;5016535;28;20189;-62
2021/08/16 01:35:50;;;;;;;11.30;10.40;;;18.10;99.90;;;;;;5029351;28;20436;-61
2021/08/16 01:38:20;;;;;;;10.57;9.67;;;18.10;99.90;;;;;;5028930;28;20971;-61
2021/08/16 01:40:46;;;;;;;11.17;10.27;;;18.10;99.90;;;;;;5028534;28;20442;-61
2021/08/16 01:43:12;;;;;;;10.47;9.53;;;18.00;99.90;;;;;;5028832;28;20499;-61
2021/08/16 01:45:38;;;;;;;11.43;10.43;;;18.00;99.90;;;;;;5029653;28;20436;-61
2021/08/16 01:48:04;;;;;;;11.03;10.13;;;18.00;99.90;;;;;;5029288;28;20186;-60
2021/08/16 01:50:30;;;;;;;11.37;10.47;;;18.00;99.90;;;;;;5028679;28;20434;-60
2021/08/16 01:52:55;;;;;;;12.10;11.10;;;17.90;99.90;;;;;;5029499;28;20512;-60
2021/08/16 01:55:21;;;;;;;10.93;9.83;;;17.90;99.90;;;;;;5029994;28;20588;-61
2021/08/16 01:57:47;;;;;;;11.67;10.67;;;17.90;99.90;;;;;;5027058;28;20209;-67
2021/08/16 02:00:13;;;;;;;11.80;10.80;;;17.90;99.90;;;;;;5029595;28;20482;-61
2021/08/16 02:02:39;;;;;;;11.77;10.70;;;17.90;99.90;;;;;;5028801;28;20174;-61
2021/08/16 02:05:05;;;;;;;12.63;11.43;;;17.90;99.90;;;;;;5028672;28;20646;-61
2021/08/16 02:07:30;;;;;;;11.90;10.70;;;17.80;99.90;;;;;;5028521;28;20449;-64
2021/08/16 02:09:56;;;;;;;11.63;10.73;;;17.80;99.90;;;;;;5028059;28;20197;-61
2021/08/16 02:12:22;;;;;;;12.30;11.20;;;17.80;99.90;;;;;;5028625;28;20188;-61
2021/08/16 02:14:47;;;;;;;11.90;10.80;;;17.70;99.90;;;;;;5029710;28;20184;-61
2021/08/16 02:17:13;;;;;;;11.77;10.77;;;17.70;99.90;;;;;;5028405;28;20279;-61
2021/08/16 02:19:39;;;;;;;11.93;10.93;;;17.70;99.90;;;;;;5028341;28;20253;-60
2021/08/16 02:22:04;;;;;;;13.30;12.10;;;17.60;99.90;;;;;;5029549;28;20793;-61
2021/08/16 02:24:30;;;;;;;13.67;12.37;;;17.60;99.90;;;;;;5028928;28;20527;-61
2021/08/16 02:26:55;;;;;;;14.80;11.63;;;17.60;99.90;;;;;;5029674;28;20176;-61
2021/08/16 02:29:21;;;;;;;13.80;12.40;;;17.50;99.90;;;;;;5029122;28;20629;-61
2021/08/16 02:31:47;;;;;;;12.93;11.83;;;17.50;99.90;;;;;;5029076;28;20185;-60
2021/08/16 02:34:12;;;;;;;12.03;11.03;;;17.40;99.90;;;;;;5027742;28;20192;-60
2021/08/16 02:36:38;;;;;;;12.87;11.87;;;17.40;99.90;;;;;;5028657;28;20585;-61
2021/08/16 02:39:04;;;;;;;11.67;10.67;;;17.30;99.90;;;;;;5025783;28;20737;-60
2021/08/16 02:41:30;;;;;;;12.00;10.93;;;17.30;99.90;;;;;;5026289;28;20272;-60
2021/08/16 02:43:55;;;;;;;13.07;11.80;;;17.30;99.90;;;;;;5028486;28;20426;-61
2021/08/16 02:46:21;;;;;;;12.70;11.57;;;17.30;99.90;;;;;;5027935;28;20180;-63
2021/08/16 02:48:47;;;;;;;12.10;11.00;;;17.30;99.90;;;;;;5028370;28;20198;-61
2021/08/16 02:51:12;;;;;;;13.00;11.80;;;17.20;99.90;;;;;;5029027;28;20191;-61
2021/08/16 02:53:38;;;;;;;11.90;10.80;;;17.20;99.90;;;;;;5028435;28;20190;-61
2021/08/16 02:56:04;;;;;;;12.47;11.47;;;17.20;99.90;;;;;;5028918;28;20190;-60
2021/08/16 02:58:30;;;;;;;12.97;11.80;;;17.20;99.90;;;;;;5029450;28;20210;-61
2021/08/16 03:00:56;;;;;;;12.20;11.10;;;17.20;99.90;;;;;;5027752;28;20470;-61
2021/08/16 03:03:21;;;;;;;12.23;11.13;;;17.30;99.90;;;;;;5029091;28;20425;-60
2021/08/16 03:05:47;;;;;;;13.30;12.10;;;17.30;99.90;;;;;;5027137;28;20191;-60
2021/08/16 03:08:12;;;;;;;12.10;11.00;;;17.20;99.90;;;;;;5029091;28;20186;-60
2021/08/16 03:10:38;;;;;;;12.10;11.10;;;17.20;99.90;;;;;;5027754;28;20279;-60
2021/08/16 03:13:04;;;;;;;12.20;11.10;;;17.20;99.90;;;;;;5027334;28;20195;-60
2021/08/16 03:15:29;;;;;;;12.20;11.10;;;17.30;99.90;;;;;;5027209;28;20928;-60
2021/08/16 03:17:55;;;;;;;11.60;10.40;;;17.30;99.90;;;;;;5028773;28;20204;-60
2021/08/16 03:20:21;;;;;;;11.80;10.80;;;17.30;99.90;;;;;;5027751;28;20177;-60
2021/08/16 03:22:46;;;;;;;10.67;9.73;;;17.30;99.90;;;;;;5029298;28;20644;-61
2021/08/16 03:25:12;;;;;;;11.30;10.30;;;17.30;99.90;;;;;;5025951;28;20180;-60
2021/08/16 03:27:38;;;;;;;12.80;11.07;;;17.30;99.90;;;;;;5029113;28;20187;-59
2021/08/16 03:30:07;;;;;;;10.93;10.03;;;17.40;99.90;;;;;;5028671;28;20189;-60
2021/08/16 03:32:33;;;;;;;12.10;11.00;;;17.40;99.90;;;;;;5028544;28;20439;-60
2021/08/16 03:34:59;;;;;;;11.57;10.53;;;17.40;99.90;;;;;;5027795;28;20444;-64
2021/08/16 03:37:24;;;;;;;11.50;10.53;;;17.40;99.90;;;;;;5028452;28;20480;-61
2021/08/16 03:39:50;;;;;;;12.10;10.90;;;17.40;99.90;;;;;;5028458;28;20180;-60
2021/08/16 03:42:16;;;;;;;11.03;10.00;;;17.40;99.90;;;;;;5029891;28;20262;-60
2021/08/16 03:44:42;;;;;;;11.03;10.03;;;17.50;99.90;;;;;;5030028;28;20711;-60
2021/08/16 03:47:08;;;;;;;11.13;10.13;;;17.50;99.90;;;;;;5028798;28;20492;-63
2021/08/16 03:49:34;;;;;;;11.03;10.13;;;17.40;99.90;;;;;;5028061;28;20435;-59
2021/08/16 03:51:59;;;;;;;11.20;10.30;;;17.40;99.90;;;;;;5029616;28;20435;-60
2021/08/16 03:54:25;;;;;;;11.10;10.10;;;17.50;99.90;;;;;;5033847;28;20434;-59
2021/08/16 03:56:51;;;;;;;10.83;9.93;;;17.50;99.90;;;;;;5032500;28;20219;-60
2021/08/16 03:59:16;;;;;;;10.47;9.63;;;17.50;99.90;;;;;;5033135;28;20188;-60
2021/08/16 04:01:42;;;;;;;10.47;9.57;;;17.50;99.90;;;;;;5031993;28;20325;-61
2021/08/16 04:04:08;;;;;;;10.90;9.80;;;17.50;99.90;;;;;;5030862;28;20187;-61
2021/08/16 04:06:34;;;;;;;11.57;10.50;;;17.50;99.90;;;;;;5032465;28;20172;-60
2021/08/16 04:08:59;;;;;;;11.53;10.53;;;17.50;99.90;;;;;;5023590;28;20493;-60
2021/08/16 04:11:25;;;;;;;11.07;10.10;;;17.50;99.90;;;;;;5022838;28;20196;-61
2021/08/16 04:13:51;;;;;;;11.03;10.13;;;17.50;99.90;;;;;;5024682;28;20193;-65
2021/08/16 04:16:17;;;;;;;11.17;10.17;;;17.50;99.90;;;;;;5023909;28;20192;-60
2021/08/16 04:18:42;;;;;;;11.97;10.90;;;17.50;99.90;;;;;;5024078;28;20744;-60
2021/08/16 04:21:08;;;;;;;10.03;9.23;;;17.50;99.90;;;;;;5024368;28;20470;-61
2021/08/16 04:23:33;;;;;;;11.20;10.10;;;17.50;99.90;;;;;;5024839;28;20187;-61
2021/08/16 04:25:59;;;;;;;11.13;10.10;;;17.60;99.90;;;;;;5024201;28;20199;-61
2021/08/16 04:28:24;;;;;;;11.07;10.13;;;17.70;99.30;;;;;;5024345;28;20185;-63
2021/08/16 04:30:50;;;;;;;10.40;9.60;;;17.70;96.20;;;;;;5023059;28;20573;-60
2021/08/16 04:33:17;;;;;;;10.90;10.00;;;17.70;98.10;;;;;;5024582;28;20187;-60
2021/08/16 04:35:43;;;;;;;11.07;10.17;;;17.80;97.00;;;;;;5023409;28;20193;-62
2021/08/16 04:38:10;;;;;;;10.80;9.70;;;17.80;96.40;;;;;;5022798;28;20800;-61
2021/08/16 04:40:35;;;;;;;10.60;9.70;;;17.90;97.80;;;;;;5021104;28;20237;-60
2021/08/16 04:43:01;;;;;;;11.70;10.70;;;17.90;96.40;;;;;;5020816;28;20440;-60
2021/08/16 04:45:27;;;;;;;11.90;10.90;;;18.00;94.00;;;;;;5021147;28;20188;-65
2021/08/16 04:47:52;;;;;;;11.40;10.40;;;18.20;87.80;;;;;;5021320;28;20202;-60
2021/08/16 04:50:19;;;;;;;11.53;10.43;;;18.20;82.10;;;;;;5021013;28;20195;-62
2021/08/16 04:52:45;;;;;;;13.17;11.90;;;18.30;77.90;;;;;;5004635;28;20191;-61
2021/08/16 04:55:11;;;;;;;11.10;10.13;;;18.40;71.30;;;;;;5020879;28;20964;-66
2021/08/16 04:57:38;;;;;;;10.60;9.70;;;18.50;66.80;;;;;;5022668;28;20478;-60
2021/08/16 05:00:07;;;;;;;10.37;9.57;;;18.50;56.20;;;;;;5023656;28;20483;-60
2021/08/16 05:02:33;;;;;;;10.20;9.30;;;18.60;56.70;;;;;;5030769;28;20506;-60
2021/08/16 05:05:06;;;;;;;10.70;9.80;;;18.60;50.20;;;;;;5030892;28;20428;-60
2021/08/16 05:07:32;;;;;;;10.93;9.93;;;18.70;46.50;;;;;;5031507;28;21069;-60
2021/08/16 05:09:58;;;;;;;11.30;10.30;;;18.80;38.90;;;;;;5029986;28;20439;-60
2021/08/16 05:12:23;;;;;;;11.23;10.30;;;18.80;35.60;;;;;;5031103;28;20662;-60
2021/08/16 05:14:49;;;;;;;10.60;9.70;;;18.80;39.70;;;;;;5028366;28;20192;-60
2021/08/16 05:17:14;;;;;;;11.10;10.17;;;18.90;37.90;;;;;;5029930;28;20683;-60
2021/08/16 05:19:40;;;;;;;10.67;9.67;;;18.90;35.30;;;;;;5028791;28;20241;-61
2021/08/16 05:22:09;;;;;;;12.23;11.13;;;18.90;32.10;;;;;;5028366;28;20648;-60
2021/08/16 05:24:36;;;;;;;10.53;9.53;;;18.90;35.80;;;;;;5030693;28;20204;-60
2021/08/16 05:27:02;;;;;;;10.93;10.03;;;18.90;29.90;;;;;;5040552;28;20424;-56
2021/08/16 05:29:28;;;;;;;17.63;10.40;;;18.90;29.20;;;;;;5028553;28;20426;-60
2021/08/16 05:31:54;;;;;;;11.57;10.53;;;19.00;33.10;;;;;;5031254;28;20440;-56
2021/08/16 05:34:20;;;;;;;10.67;9.57;;;19.00;28.50;;;;;;5030048;28;20969;-60
2021/08/16 05:36:45;;;;;;;11.20;10.27;;;19.00;29.60;;;;;;5030072;28;20429;-60
2021/08/16 05:39:11;;;;;;;10.97;9.97;;;19.10;25.50;;;;;;5029629;28;20967;-61
2021/08/16 05:41:36;;;;;;;11.00;10.10;;;19.20;23.80;;;;;;5029817;28;20194;-60
2021/08/16 05:44:02;;;;;;;11.27;10.27;;;19.30;19.40;;;;;;5030500;28;20198;-61
2021/08/16 05:46:27;;;;;;;10.70;9.80;;;19.40;13.90;;;;;;5029990;28;20959;-61
2021/08/16 05:48:53;;;;;;;10.73;9.63;;;19.50;11.00;;;;;;5030710;28;20919;-60
2021/08/16 05:51:18;;;;;;;10.10;9.20;;;19.50;8.20;;;;;;5029515;28;20197;-60
2021/08/16 05:53:44;;;;;;;10.37;9.53;;;19.60;5.90;;;;;;5029981;28;20190;-60
2021/08/16 05:56:10;;;;;;;10.43;9.53;;;19.70;2.50;;;;;;5029073;28;20549;-60
2021/08/16 05:58:35;;;;;;;9.63;8.93;;;19.80;1.00;;;;;;5030549;28;20211;-60
2021/08/16 06:01:01;;;;;;;9.90;9.03;;;20.00;1.00;;;;;;5029355;28;20231;-60
2021/08/16 06:03:26;;;;;;;9.73;8.93;;;20.10;1.00;;;;;;5030198;28;20211;-61
2021/08/16 06:05:52;;;;;;;9.77;8.77;;;20.30;1.00;;;;;;5029447;28;20222;-60
2021/08/16 06:08:18;;;;;;;9.20;8.40;;;20.40;1.00;;;;;;5030211;28;20187;-61
2021/08/16 06:10:43;;;;;;;9.50;8.70;;;20.50;1.00;;;;;;5030244;28;20183;-60
2021/08/16 06:13:09;;;;;;;9.83;9.07;;;20.50;1.00;;;;;;5028682;28;20261;-61
2021/08/16 06:15:34;;;;;;;10.00;9.10;;;20.70;1.00;;;;;;5029823;28;20195;-60
2021/08/16 06:18:00;;;;;;;9.93;9.13;;;20.80;1.00;;;;;;5029114;28;20293;-61
2021/08/16 06:20:25;;;;;;;9.07;8.27;;;20.90;1.00;;;;;;5029967;28;20179;-61
2021/08/16 06:22:51;;;;;;;9.97;9.20;;;21.10;1.00;;;;;;5028755;28;21130;-59
2021/08/16 06:25:17;;;;;;;9.80;9.00;;;21.10;1.00;;;;;;5029396;28;20571;-68
2021/08/16 06:27:42;;;;;;;9.70;8.80;;;21.20;1.00;;;;;;5026816;28;20191;-59
2021/08/16 06:30:08;;;;;;;10.13;9.33;;;21.30;1.00;;;;;;5029304;28;20721;-59
2021/08/16 06:32:35;;;;;;;9.20;7.80;;;21.30;1.00;;;;;;5029683;28;20175;-60
2021/08/16 06:35:01;;;;;;;10.20;9.30;;;21.40;1.00;;;;;;5050159;28;20405;-60
2021/08/16 06:37:27;;;;;;;9.63;8.73;;;21.50;1.00;;;;;;5050045;28;20460;-60
2021/08/16 06:39:52;;;;;;;10.40;9.40;;;21.50;1.00;;;;;;5051271;28;20409;-60
2021/08/16 06:42:19;;;;;;;9.73;8.93;;;21.50;1.00;;;;;;5036232;28;20188;-60
2021/08/16 06:44:45;;;;;;;9.00;8.30;;;21.60;1.00;;;;;;5031607;28;20665;-60
2021/08/16 06:47:12;;;;;;;8.30;7.60;;;21.70;1.00;;;;;;5029937;28;20430;-59
2021/08/16 06:49:37;;;;;;;8.77;7.97;;;21.80;1.00;;;;;;5033535;28;20242;-59
2021/08/16 06:52:03;;;;;;;9.87;9.07;;;22.00;1.00;;;;;;5034425;28;20430;-59
2021/08/16 06:54:28;;;;;;;8.97;8.27;;;22.30;1.00;;;;;;5031069;28;20238;-59
2021/08/16 06:56:54;;;;;;;8.67;8.00;;;22.40;1.00;;;;;;5030163;28;20259;-60
2021/08/16 06:59:20;;;;;;;8.93;8.30;;;22.70;1.00;;;;;;5027955;28;20186;-67
2021/08/16 07:01:45;;;;;;;8.90;8.20;;;23.00;99.90;;;;;;5028099;28;20237;-61
2021/08/16 07:04:11;;;;;;;9.03;8.33;;;23.40;99.90;;;;;;5029639;28;20193;-60
2021/08/16 07:06:36;;;;;;;9.17;8.40;;;23.80;1.00;;;;;;5027656;28;20182;-60
2021/08/16 07:09:02;;;;;;;9.00;8.30;;;24.10;99.90;;;;;;5027873;28;20187;-60
2021/08/16 07:11:28;;;;;;;8.83;8.17;;;24.40;49.80;;;;;;5030130;28;20696;-59
2021/08/16 07:13:53;;;;;;;9.10;8.30;;;24.60;1.00;;;;;;5028185;28;20641;-65
2021/08/16 07:16:21;;;;;;;8.90;8.20;;;24.60;99.90;;;;;;5030306;28;20171;-60
2021/08/16 07:18:47;;;;;;;8.40;7.80;;;24.60;1.00;;;;;;5028472;28;20687;-59
2021/08/16 07:21:13;;;;;;;8.03;7.43;;;24.60;1.00;;;;;;5029173;28;20429;-60
2021/08/16 07:23:38;;;;;;;7.50;6.90;;;24.70;99.90;;;;;;5028909;28;20186;-60
2021/08/16 07:26:06;;;;;;;8.60;7.90;;;24.70;99.90;;;;;;5029375;28;20179;-61
2021/08/16 07:28:32;;;;;;;8.63;7.93;;;24.80;1.00;;;;;;5029699;28;20198;-60
2021/08/16 07:31:00;;;;;;;8.80;7.90;;;24.80;1.00;;;;;;5035296;28;20437;-67
2021/08/16 07:33:26;;;;;;;9.53;8.70;;;25.00;99.90;;;;;;5034714;28;20985;-61
2021/08/16 07:35:52;;;;;;;9.73;8.93;;;25.00;99.90;;;;;;5033803;28;20535;-60
2021/08/16 07:38:17;;;;;;;8.70;8.10;;;25.10;99.90;;;;;;5033442;28;21025;-61
2021/08/16 07:40:43;;;;;;;8.97;8.20;;;25.10;99.90;;;;;;5031920;28;20433;-60
2021/08/16 07:43:09;;;;;;;8.90;8.10;;;25.10;99.90;;;;;;5032702;28;20262;-60
2021/08/16 07:45:35;;;;;;;9.93;9.17;;;25.10;99.90;;;;;;5032439;28;20664;-60
2021/08/16 07:48:03;;;;;;;10.00;9.00;;;25.30;99.90;;;;;;5023625;28;20465;-60
2021/08/16 07:50:29;;;;;;;9.33;8.60;;;25.30;1.00;;;;;;5033173;28;20417;-54
2021/08/16 07:52:55;;;;;;;9.47;8.67;;;25.20;99.90;;;;;;5032423;28;20445;-60
2021/08/16 07:55:21;;;;;;;9.33;8.37;;;25.30;99.90;;;;;;5032201;28;20433;-60
2021/08/16 07:57:46;;;;;;;10.97;9.97;;;25.40;99.90;;;;;;5031655;28;20504;-60
2021/08/16 08:00:12;;;;;;;10.63;9.83;;;25.50;99.90;;;;;;5030418;28;20665;-54
2021/08/16 08:02:49;;;;;;;10.50;9.33;;;25.60;1.00;;;;;;5032884;28;20177;-68
2021/08/16 08:05:17;;;;;;;9.50;8.80;;;25.60;1.00;;;;;;5030508;28;20429;-57
2021/08/16 08:07:43;;;;;;;8.17;7.57;;;25.60;1.00;;;;;;5030536;28;20939;-60
2021/08/16 08:10:10;;;;;;;7.90;7.37;;;25.70;99.90;;;;;;5032180;28;20432;-60
2021/08/16 08:12:35;;;;;;;9.00;8.40;;;25.80;99.90;;;;;;5032101;28;20421;-60
2021/08/16 08:15:05;;;;;;;8.07;7.27;;;25.90;99.90;;;;;;5031371;28;20425;-60
2021/08/16 08:17:31;;;;;;;7.90;7.27;;;25.90;34.80;;;;;;5032104;28;20276;-60
2021/08/16 08:19:57;;;;;;;8.03;7.53;;;26.00;44.40;;;;;;5032082;28;20417;-60
2021/08/16 08:22:23;;;;;;;9.90;7.90;;;26.20;1.00;;;;;;5031213;28;20460;-60
2021/08/16 08:24:49;;;;;;;8.73;8.10;;;26.50;1.00;;;;;;5032050;28;20239;-59
2021/08/16 08:27:15;;;;;;;9.30;8.70;;;26.60;1.00;;;;;;5031920;28;20470;-60
2021/08/16 08:29:41;;;;;;;8.17;7.50;;;26.60;1.00;;;;;;5033219;28;20415;-60
2021/08/16 08:32:07;;;;;;;9.73;9.03;;;26.60;1.00;;;;;;5031955;28;20728;-60
2021/08/16 08:34:33;;;;;;;9.20;8.50;;;26.40;1.00;;;;;;5031571;28;20440;-60
2021/08/16 08:37:00;;;;;;;10.73;9.73;;;26.50;3.20;;;;;;5028842;28;20425;-61
2021/08/16 08:39:25;;;;;;;9.90;9.10;;;26.50;23.30;;;;;;5037987;28;20436;-60
2021/08/16 08:41:57;;;;;;;10.23;9.53;;;26.50;99.90;;;;;;5030279;28;20760;-59
2021/08/16 08:44:24;;;;;;;10.00;9.30;;;26.60;80.90;;;;;;5030448;28;20186;-59
2021/08/16 08:46:50;;;;;;;10.20;9.50;;;26.80;99.90;;;;;;5030501;28;20444;-62
2021/08/16 08:49:16;;;;;;;10.70;9.87;;;27.00;69.60;;;;;;5030652;28;20454;-60
2021/08/16 08:51:42;;;;;;;10.97;10.00;;;27.00;40.50;;;;;;5030232;28;20420;-60
2021/08/16 08:54:09;;;;;;;11.13;10.13;;;27.20;47.50;;;;;;5030895;28;20421;-60
2021/08/16 08:56:36;;;;;;;10.73;9.93;;;27.20;23.10;;;;;;5030611;28;20436;-59
2021/08/16 08:59:01;;;;;;;11.70;10.70;;;26.80;1.00;;;;;;5030659;28;20814;-59
2021/08/16 09:01:27;;;;;;;10.50;9.70;;;26.60;59.00;;;;;;5030189;28;20469;-65
2021/08/16 09:03:54;;;;;;;11.23;10.23;;;26.50;32.00;;;;;;5030385;28;20621;-60
2021/08/16 09:06:34;;;;;;;11.87;10.17;;;26.40;71.50;;;;;;5030214;28;20182;-60
2021/08/16 09:09:00;;;;;;;9.70;8.93;;;26.40;51.80;;;;;;5023339;28;20552;-60
2021/08/16 09:11:28;;;;;;;11.07;10.17;;;26.30;11.00;;;;;;5030418;28;20427;-59
2021/08/16 09:13:58;;;;;;;10.60;9.70;;;26.40;1.00;;;;;;5030561;28;20421;-60
2021/08/16 09:16:29;;;;;;;10.47;9.77;;;26.60;1.00;;;;;;5029555;28;20422;-60
2021/08/16 09:18:55;;;;;;;10.67;9.67;;;26.90;1.00;;;;;;5029751;28;20484;-60
2021/08/16 09:21:28;;;;;;;10.90;10.10;;;26.90;1.00;;;;;;5030009;28;20504;-60
2021/08/16 09:23:56;;;;;;;10.93;10.00;;;26.90;1.00;;;;;;5021809;28;20434;-59
2021/08/16 09:26:31;;;;;;;10.97;10.07;;;26.80;1.00;;;;;;5021272;28;20416;-59
2021/08/16 09:29:10;;;;;;;9.63;8.93;;;26.90;1.00;;;;;;5022305;28;20419;-60
2021/08/16 09:31:36;;;;;;;9.93;9.13;;;27.20;1.00;;;;;;5022948;28;20428;-61
2021/08/16 09:34:02;;;;;;;8.73;8.07;;;28.10;1.00;;;;;;5025721;28;20432;-60
2021/08/16 09:36:38;;;;;;;9.10;8.30;;;28.90;1.00;;;;;;5026467;28;20218;-61
2021/08/16 09:39:17;;;;;;;8.00;7.50;;;29.90;1.00;;;;;;5028069;28;20217;-60
2021/08/16 09:41:43;;;;;;;8.57;7.90;;;30.40;99.90;;;;;;5021180;28;20426;-60
2021/08/16 09:44:11;;;;;;;8.03;7.53;;;30.90;99.90;;;;;;5022818;28;20414;-60
2021/08/16 09:46:37;;;;;;;9.53;8.77;;;31.00;99.90;;;;;;5019655;28;20184;-60
2021/08/16 09:49:05;;;;;;;8.63;8.00;;;31.40;99.90;;;;;;5022375;28;21042;-60
2021/08/16 09:51:32;;;;;;;9.00;8.40;;;31.80;99.90;;;;;;5017817;28;20436;-61
2021/08/16 09:54:00;;;;;;;9.10;8.50;;;31.70;99.90;;;;;;5023792;28;20429;-60
2021/08/16 09:56:26;;;;;;;9.17;8.50;;;31.50;99.90;;;;;;5019892;28;20426;-61
2021/08/16 09:58:52;;;;;;;8.40;7.90;;;31.40;99.90;;;;;;5023573;28;20493;-61
2021/08/16 10:01:18;;;;;;;9.77;9.10;;;31.20;99.90;;;;;;5021299;28;20464;-60
2021/08/16 10:03:44;;;;;;;8.83;8.23;;;31.10;99.90;;;;;;5023371;28;21765;-60
2021/08/16 10:06:14;;;;;;;9.37;8.67;;;31.40;99.90;;;;;;5028106;28;20182;-60
2021/08/16 10:08:45;;;;;;;9.40;8.70;;;31.60;99.90;;;;;;5021744;28;20445;-61
2021/08/16 10:11:16;;;;;;;8.83;8.27;;;32.10;99.90;;;;;;5025981;28;20429;-60
2021/08/16 10:13:44;;;;;;;8.40;7.80;;;32.40;99.90;;;;;;5024906;28;20746;-61
2021/08/16 10:16:14;;;;;;;9.33;8.73;;;32.50;99.90;;;;;;5029091;28;20914;-60
2021/08/16 10:18:47;;;;;;;10.00;9.30;;;31.90;99.90;;;;;;5029566;28;20469;-60
2021/08/16 10:21:19;;;;;;;10.10;9.43;;;32.00;99.90;;;;;;5028692;28;20437;-60
2021/08/16 10:23:52;;;;;;;10.33;9.53;;;32.30;99.90;;;;;;5037689;28;20405;-60
2021/08/16 10:26:30;;;;;;;9.57;8.97;;;31.90;99.90;;;;;;5028141;28;21100;-60
2021/08/16 10:29:01;;;;;;;10.20;9.50;;;31.40;99.90;;;;;;5028874;28;20417;-60
2021/08/16 10:31:41;;;;;;;10.33;9.63;;;30.10;99.90;;;;;;5027231;28;20583;-60
2021/08/16 10:34:07;;;;;;;9.60;8.97;;;28.80;99.90;;;;;;5029062;28;20745;-60
2021/08/16 10:36:32;;;;;;;9.43;8.73;;;28.50;99.90;;;;;;5028961;28;20444;-59
2021/08/16 10:39:00;;;;;;;9.70;9.00;;;29.00;99.90;;;;;;5029250;28;20194;-60
2021/08/16 10:41:31;;;;;;;9.17;8.60;;;29.70;99.90;;;;;;5026762;28;20183;-60
2021/08/16 10:43:57;;;;;;;9.70;9.00;;;30.20;99.90;;;;;;5028961;28;20536;-62
2021/08/16 10:46:23;;;;;;;10.20;9.30;;;30.40;99.90;;;;;;5028766;28;20441;-59
2021/08/16 10:49:00;;;;;;;9.60;8.90;;;29.90;99.90;;;;;;5028007;28;20793;-61
2021/08/16 10:51:26;;;;;;;10.50;9.80;;;29.20;99.90;;;;;;5028844;28;20453;-61
2021/08/16 10:53:54;;;;;;;9.43;8.73;;;28.90;99.90;;;;;;5028078;28;20441;-61
2021/08/16 10:56:22;;;;;;;9.97;9.23;;;28.80;99.90;;;;;;5028883;28;20189;-61
2021/08/16 10:58:48;;;;;;;10.00;9.20;;;28.70;99.90;;;;;;5027477;28;21196;-62
2021/08/16 11:01:27;;;;;;;10.60;9.80;;;28.50;99.90;;;;;;5026409;28;20827;-60
2021/08/16 11:03:57;;;;;;;10.13;9.37;;;28.20;99.90;;;;;;5028274;28;20417;-59
2021/08/16 11:06:23;;;;;;;9.70;9.00;;;28.10;99.90;;;;;;5028642;28;20838;-61
2021/08/16 11:09:05;;;;;;;9.50;8.80;;;28.40;99.90;;;;;;5026956;28;20473;-60
2021/08/16 11:11:32;;;;;;;10.00;9.30;;;28.60;99.90;;;;;;5028579;28;20984;-60
2021/08/16 11:14:09;;;;;;;9.93;9.13;;;28.60;99.90;;;;;;5027005;28;20516;-59
2021/08/16 11:16:50;;;;;;;10.53;9.73;;;28.40;99.90;;;;;;5027695;28;20934;-63
2021/08/16 11:19:16;;;;;;;9.83;9.23;;;28.60;99.90;;;;;;5022674;28;20461;-60
2021/08/16 11:21:58;;;;;;;10.30;9.60;;;28.40;99.90;;;;;;5028198;28;20415;-61
2021/08/16 11:24:35;;;;;;;10.47;9.67;;;27.50;99.90;;;;;;5017906;28;20820;-60
2021/08/16 11:27:03;;;;;;;9.80;9.00;;;27.10;99.90;;;;;;5025661;28;20427;-60
2021/08/16 11:29:29;;;;;;;10.87;9.97;;;26.80;99.90;;;;;;5026515;28;20414;-60
2021/08/16 11:32:01;;;;;;;10.37;9.47;;;26.70;99.90;;;;;;5024383;28;20432;-60
2021/08/16 11:34:30;;;;;;;9.43;8.73;;;27.00;99.90;;;;;;5027778;28;20469;-62
2021/08/16 11:36:57;;;;;;;9.50;8.90;;;27.40;99.90;;;;;;5027706;28;20485;-60
2021/08/16 11:39:33;;;;;;;9.67;8.97;;;28.20;99.90;;;;;;5027924;28;20467;-60
2021/08/16 11:42:00;;;;;;;9.03;8.33;;;29.00;99.90;;;;;;5028191;28;20425;-61
2021/08/16 11:44:27;;;;;;;9.10;8.50;;;29.40;99.90;;;;;;5028024;28;20410;-60
2021/08/16 11:46:53;;;;;;;9.33;8.60;;;29.40;99.90;;;;;;5027272;28;20517;-60
2021/08/16 11:49:19;;;;;;;9.20;8.50;;;28.90;99.90;;;;;;5025062;28;20571;-60
2021/08/16 11:51:45;;;;;;;8.80;8.00;;;28.60;99.90;;;;;;5024089;28;20257;-61
2021/08/16 11:54:22;;;;;;;8.43;7.63;;;28.90;99.90;;;;;;5025049;28;20540;-62
2021/08/16 11:56:52;;;;;;;8.73;8.13;;;29.30;99.90;;;;;;5025502;28;20467;-61
2021/08/16 11:59:18;;;;;;;7.67;7.17;;;29.20;99.90;;;;;;5026433;28;20457;-60
2021/08/16 12:01:43;;;;;;;7.97;7.37;;;28.50;99.90;;;;;;5025647;28;20813;-60
2021/08/16 12:04:11;;;;;;;7.90;7.40;;;27.60;99.90;;;;;;5026570;28;20182;-60
2021/08/16 12:06:37;;;;;;;7.63;7.13;;;27.40;99.90;;;;;;5025173;28;20196;-60
2021/08/16 12:09:07;;;;;;;7.67;7.07;;;27.20;99.90;;;;;;5025406;28;20910;-60
2021/08/16 12:11:33;;;;;;;8.40;7.70;;;26.90;99.90;;;;;;5024068;28;20280;-60
2021/08/16 12:14:01;;;;;;;8.07;7.47;;;26.70;99.90;;;;;;5026712;28;20562;-59
2021/08/16 12:16:38;;;;;;;8.13;7.53;;;26.50;99.90;;;;;;5029908;28;20967;-60
2021/08/16 12:19:05;;;;;;;8.23;7.63;;;26.30;99.90;;;;;;5030567;28;20459;-60
2021/08/16 12:21:31;;;;;;;8.37;7.67;;;26.30;99.90;;;;;;5027829;28;20415;-67
2021/08/16 12:24:06;;;;;;;8.00;7.30;;;26.40;99.90;;;;;;5027409;28;20406;-63
2021/08/16 12:26:36;;;;;;;7.90;7.40;;;26.60;99.90;;;;;;5029000;28;20234;-65
2021/08/16 12:29:23;;;;;;;7.93;7.23;;;27.00;99.90;;;;;;5029183;28;20447;-59
2021/08/16 12:31:49;;;;;;;7.27;6.80;;;27.40;99.90;;;;;;5028732;28;20430;-61
2021/08/16 12:34:14;;;;;;;8.20;7.50;;;27.40;99.90;;;;;;5030290;28;20504;-60
2021/08/16 12:36:49;;;;;;;10.23;9.33;;;27.50;99.90;;;;;;5030886;28;20178;-61
2021/08/16 12:39:15;;;;;;;8.33;7.53;;;27.40;99.90;;;;;;5029408;28;20297;-62